createdAt,value
2023-02-24T00:01:13.942Z,14.20
2023-02-24T00:06:15.899Z,12.40
2023-02-24T00:11:19.263Z,12.40
2023-02-24T00:16:24.709Z,13.60
2023-02-24T00:21:28.574Z,13.20
2023-02-24T00:26:30.675Z,12.90
2023-02-24T00:31:39.667Z,13.60
2023-02-24T00:36:43.041Z,12.60
2023-02-24T00:41:45.697Z,13.70
2023-02-24T00:46:47.627Z,12.60
2023-02-24T00:51:49.965Z,13.60
2023-02-24T00:56:51.922Z,13.30
2023-02-24T01:01:54.962Z,13.30
2023-02-24T01:07:00.459Z,13.50
2023-02-24T01:12:38.452Z,13.00
2023-02-24T01:17:40.788Z,12.20
2023-02-24T01:22:51.286Z,12.80
2023-02-24T01:27:54.102Z,13.10
2023-02-24T01:32:57.934Z,12.60
2023-02-24T01:38:01.825Z,12.70
2023-02-24T01:43:09.057Z,14.20
2023-02-24T01:48:12.561Z,13.50
2023-02-24T01:53:15.429Z,11.90
2023-02-24T01:58:24.717Z,12.20
2023-02-24T02:03:31.451Z,12.70
2023-02-24T02:08:36.768Z,12.90
2023-02-24T02:13:44.797Z,12.80
2023-02-24T02:19:30.664Z,12.10
2023-02-24T02:24:44.098Z,12.90
2023-02-24T02:30:14.070Z,12.70
2023-02-24T02:35:37.095Z,13.30
2023-02-24T02:41:23.676Z,13.00
2023-02-24T02:46:46.795Z,13.40
2023-02-24T02:51:57.088Z,13.60
2023-02-24T02:57:20.545Z,13.70
2023-02-24T03:02:29.638Z,14.30
2023-02-24T03:07:37.698Z,14.60
2023-02-24T03:12:42.485Z,14.60
2023-02-24T03:17:46.622Z,14.50
2023-02-24T03:22:59.208Z,13.80
2023-02-24T03:28:11.540Z,15.00
2023-02-24T03:33:19.996Z,15.30
2023-02-24T03:38:24.563Z,14.80
2023-02-24T03:43:31.981Z,15.20
2023-02-24T03:48:40.672Z,16.00
2023-02-24T03:54:00.515Z,15.40
2023-02-24T03:59:18.720Z,15.90
2023-02-24T04:04:40.861Z,16.80
2023-02-24T04:10:21.167Z,16.70
2023-02-24T04:15:35.600Z,17.70
2023-02-24T04:20:40.036Z,16.50
2023-02-24T04:25:49.202Z,16.90
2023-02-24T04:30:58.618Z,16.50
2023-02-24T04:36:01.568Z,18.90
2023-02-24T04:41:07.632Z,18.80
2023-02-24T04:46:13.461Z,18.20
2023-02-24T04:51:15.787Z,19.50
2023-02-24T04:56:18.805Z,19.40
2023-02-24T05:01:21.172Z,20.40
2023-02-24T05:06:23.827Z,19.00
2023-02-24T05:11:35.464Z,20.70
2023-02-24T05:16:38.507Z,18.90
2023-02-24T05:21:41.817Z,18.20
2023-02-24T05:26:43.792Z,16.50
2023-02-24T05:31:46.918Z,17.10
2023-02-24T05:36:49.621Z,17.10
2023-02-24T05:41:54.733Z,18.20
2023-02-24T05:47:00.847Z,17.30
2023-02-24T05:52:09.765Z,18.40
2023-02-24T05:57:17.067Z,18.30
2023-02-24T06:02:27.639Z,17.00
2023-02-24T06:07:35.014Z,18.90
2023-02-24T06:12:40.054Z,18.20
2023-02-24T06:17:42.666Z,18.60
2023-02-24T06:22:44.812Z,19.60
2023-02-24T06:27:53.180Z,19.10
2023-02-24T06:32:56.865Z,18.70
2023-02-24T06:37:59.513Z,20.90
2023-02-24T06:43:02.945Z,19.30
2023-02-24T06:48:07.897Z,20.20
2023-02-24T06:53:17.028Z,21.10
2023-02-24T06:58:20.850Z,21.20
2023-02-24T07:03:40.851Z,21.50
2023-02-24T07:08:44.227Z,22.10
2023-02-24T07:13:48.016Z,23.40
2023-02-24T07:18:54.386Z,21.70
2023-02-24T07:23:59.119Z,22.70
2023-02-24T07:29:06.461Z,23.10
2023-02-24T07:34:08.513Z,24.50
2023-02-24T07:39:11.847Z,24.10
2023-02-24T07:44:16.664Z,23.70
2023-02-24T07:49:29.929Z,21.60
2023-02-24T07:54:33.257Z,22.60
2023-02-24T07:59:38.152Z,22.80
2023-02-24T08:04:44.425Z,24.00
2023-02-24T08:10:13.939Z,23.40
2023-02-24T08:15:24.096Z,24.10
2023-02-24T08:25:44.629Z,23.20
2023-02-24T08:30:50.513Z,24.90
2023-02-24T08:36:02.375Z,25.00
2023-02-24T08:41:17.843Z,25.60
2023-02-24T08:46:26.736Z,24.70
2023-02-24T08:51:35.555Z,26.50
2023-02-24T08:56:43.425Z,26.20
2023-02-24T09:02:04.320Z,26.70
2023-02-24T09:07:15.369Z,27.30
2023-02-24T09:12:24.969Z,27.80
2023-02-24T09:17:45.834Z,28.20
2023-02-24T09:23:04.167Z,28.50
2023-02-24T09:28:19.925Z,30.90
2023-02-24T09:33:27.788Z,30.50
2023-02-24T09:38:52.140Z,28.50
2023-02-24T09:44:18.305Z,27.90
2023-02-24T09:49:26.885Z,28.00
2023-02-24T09:54:35.418Z,27.30
2023-02-24T10:00:22.831Z,26.20
2023-02-24T10:05:49.500Z,28.60
2023-02-24T10:11:22.801Z,27.50
2023-02-24T10:16:25.770Z,27.60
2023-02-24T10:21:49.855Z,26.80
2023-02-24T10:27:16.400Z,26.80
2023-02-24T10:33:01.570Z,26.80
2023-02-24T10:38:07.047Z,27.30
2023-02-24T10:43:20.069Z,25.30
2023-02-24T10:48:43.349Z,23.70
2023-02-24T10:54:28.926Z,22.80
2023-02-24T11:00:32.773Z,25.00
2023-02-24T11:06:02.199Z,21.20
2023-02-24T11:11:20.201Z,22.30
2023-02-24T11:16:51.566Z,22.80
2023-02-24T11:21:56.298Z,22.20
2023-02-24T11:26:59.225Z,22.70
2023-02-24T11:32:23.344Z,23.10
2023-02-24T11:37:41.875Z,21.10
2023-02-24T11:43:18.570Z,21.00
2023-02-24T11:48:57.010Z,21.70
2023-02-24T11:54:39.318Z,23.10
2023-02-24T12:00:05.427Z,22.60
2023-02-24T12:05:18.753Z,21.00
2023-02-24T12:10:49.021Z,21.50
2023-02-24T12:16:10.958Z,23.20
2023-02-24T12:21:41.972Z,23.40
2023-02-24T12:27:15.526Z,25.10
2023-02-24T12:32:47.047Z,24.80
2023-02-24T12:38:30.556Z,25.10
2023-02-24T12:43:46.159Z,25.30
2023-02-24T12:49:32.421Z,26.00
2023-02-24T12:55:19.031Z,24.70
2023-02-24T13:00:32.180Z,26.90
2023-02-24T13:05:59.656Z,24.20
2023-02-24T13:11:16.444Z,23.40
2023-02-24T13:16:34.307Z,24.50
2023-02-24T13:21:42.753Z,24.10
2023-02-24T13:26:57.419Z,24.30
2023-02-24T13:32:00.887Z,23.40
2023-02-24T13:37:04.350Z,23.60
2023-02-24T13:42:30.868Z,23.40
2023-02-24T13:47:51.594Z,23.90
2023-02-24T13:53:58.908Z,17.30
2023-02-24T14:00:01.711Z,17.40
2023-02-24T14:05:25.522Z,22.10
2023-02-24T14:10:31.438Z,25.30
2023-02-24T14:15:53.378Z,25.40
2023-02-24T14:20:58.942Z,27.90
2023-02-24T14:26:23.357Z,27.00
2023-02-24T14:31:28.343Z,26.60
2023-02-24T14:36:38.188Z,25.70
2023-02-24T14:41:41.478Z,26.50
2023-02-24T14:46:55.660Z,25.90
2023-02-24T14:52:18.533Z,25.60
2023-02-24T14:57:26.746Z,24.20
2023-02-24T15:02:33.561Z,25.50
2023-02-24T15:07:37.473Z,24.50
2023-02-24T15:12:49.513Z,22.80
2023-02-24T15:17:56.374Z,20.40
2023-02-24T15:22:59.106Z,15.30
2023-02-24T15:28:03.921Z,12.10
2023-02-24T15:33:14.764Z,11.20
2023-02-24T15:38:30.781Z,10.70
2023-02-24T15:43:53.006Z,10.20
2023-02-24T15:48:57.642Z,10.80
2023-02-24T15:54:06.340Z,10.40
2023-02-24T15:59:14.654Z,11.90
2023-02-24T16:04:23.752Z,12.90
2023-02-24T16:09:37.337Z,12.00
2023-02-24T16:14:42.435Z,13.50
2023-02-24T16:19:48.237Z,14.50
2023-02-24T16:24:56.413Z,16.50
2023-02-24T16:30:23.032Z,20.40
2023-02-24T16:35:28.292Z,15.20
2023-02-24T16:40:38.709Z,7.90
2023-02-24T16:45:46.096Z,5.50
2023-02-24T16:50:49.318Z,4.60
2023-02-24T16:55:52.181Z,4.10
2023-02-24T17:01:02.706Z,4.20
2023-02-24T17:06:06.000Z,4.60
2023-02-24T17:11:14.439Z,5.50
2023-02-24T17:16:16.842Z,6.90
2023-02-24T17:21:20.664Z,8.50
2023-02-24T17:26:23.994Z,8.60
2023-02-24T17:31:31.753Z,11.40
2023-02-24T17:36:35.636Z,11.10
2023-02-24T17:41:47.116Z,14.10
2023-02-24T17:46:49.949Z,12.80
2023-02-24T17:51:52.536Z,13.00
2023-02-24T17:56:54.605Z,11.10
2023-02-24T18:02:00.069Z,11.50
2023-02-24T18:07:05.477Z,10.90
2023-02-24T18:12:14.487Z,10.20
2023-02-24T18:17:17.676Z,10.10
2023-02-24T18:22:21.628Z,9.60
2023-02-24T18:27:29.172Z,11.40
2023-02-24T18:32:32.058Z,9.80
2023-02-24T18:37:34.431Z,11.70
2023-02-24T18:42:41.529Z,11.70
2023-02-24T18:47:43.625Z,18.50
2023-02-24T18:52:45.791Z,17.60
2023-02-24T18:57:48.585Z,19.40
2023-02-24T19:02:51.126Z,20.50
2023-02-24T19:07:53.629Z,22.90
2023-02-24T19:12:57.013Z,23.30
2023-02-24T19:18:02.540Z,23.40
2023-02-24T19:23:06.195Z,23.30
2023-02-24T19:28:08.614Z,23.50
2023-02-24T19:33:18.695Z,23.70
2023-02-24T19:38:22.595Z,23.80
2023-02-24T19:43:25.017Z,23.30
2023-02-24T19:48:27.507Z,22.00
2023-02-24T19:53:30.563Z,24.40
2023-02-24T19:58:35.901Z,24.30
2023-02-24T20:03:40.689Z,25.40
2023-02-24T20:08:42.988Z,25.70
2023-02-24T20:13:45.949Z,22.50
2023-02-24T20:18:48.849Z,21.60
2023-02-24T20:23:54.861Z,19.30
2023-02-24T20:29:01.067Z,16.60
2023-02-24T20:34:10.723Z,16.30
2023-02-24T20:39:15.516Z,15.40
2023-02-24T20:44:18.096Z,15.90
2023-02-24T20:49:20.509Z,17.30
2023-02-24T20:54:23.974Z,17.20
2023-02-24T20:59:26.752Z,15.10
2023-02-24T21:04:29.123Z,13.30
2023-02-24T21:09:37.289Z,13.30
2023-02-24T21:14:39.651Z,12.90
2023-02-24T21:19:43.244Z,12.20
2023-02-24T21:24:45.395Z,13.20
2023-02-24T21:29:55.177Z,12.10
2023-02-24T21:35:00.231Z,11.80
2023-02-24T21:40:11.211Z,10.70
2023-02-24T21:45:14.141Z,9.90
2023-02-24T21:50:18.112Z,10.20
2023-02-24T21:55:26.491Z,8.00
2023-02-24T22:00:30.344Z,7.30
2023-02-24T22:05:35.874Z,5.70
2023-02-24T22:10:40.784Z,5.30
2023-02-24T22:15:44.308Z,5.10
2023-02-24T22:20:48.026Z,5.50
2023-02-24T22:25:50.503Z,7.40
2023-02-24T22:30:57.682Z,11.20
2023-02-24T22:36:05.759Z,11.00
2023-02-24T22:41:14.593Z,8.40
2023-02-24T22:46:22.022Z,9.40
2023-02-24T22:51:32.895Z,8.40
2023-02-24T22:56:36.117Z,9.10
2023-02-24T23:01:39.744Z,8.10
2023-02-24T23:06:42.830Z,8.80
2023-02-24T23:11:46.938Z,10.20
2023-02-24T23:17:01.510Z,14.30
2023-02-24T23:22:10.970Z,25.10
2023-02-24T23:27:13.628Z,30.70
2023-02-24T23:32:16.892Z,32.40
2023-02-24T23:37:21.104Z,32.90
2023-02-24T23:42:24.225Z,30.50
2023-02-24T23:47:30.709Z,31.50
2023-02-24T23:52:34.198Z,28.90
2023-02-24T23:57:37.628Z,27.20
